sensor_id;sensor_type;location;lat;lon;timestamp;pressure;altitude;pressure_sealevel;temperature;humidity
6506;BME280;3286;49.858;8.768;2023-04-26T00:01:56;99336.00;;;7.36;48.36
6506;BME280;3286;49.858;8.768;2023-04-26T00:04:23;99324.41;;;7.39;47.90
6506;BME280;3286;49.858;8.768;2023-04-26T00:06:49;99325.88;;;7.32;47.77
6506;BME280;3286;49.858;8.768;2023-04-26T00:09:16;99325.75;;;7.01;48.46
6506;BME280;3286;49.858;8.768;2023-04-26T00:11:45;99320.44;;;7.45;47.41
6506;BME280;3286;49.858;8.768;2023-04-26T00:14:11;99322.66;;;7.28;48.09
6506;BME280;3286;49.858;8.768;2023-04-26T00:16:38;99326.91;;;7.08;48.75
6506;BME280;3286;49.858;8.768;2023-04-26T00:19:05;99328.38;;;7.01;48.94
6506;BME280;3286;49.858;8.768;2023-04-26T00:21:31;99330.66;;;7.27;48.31
6506;BME280;3286;49.858;8.768;2023-04-26T00:23:58;99335.50;;;7.10;48.05
6506;BME280;3286;49.858;8.768;2023-04-26T00:26:24;99325.34;;;7.38;48.00
6506;BME280;3286;49.858;8.768;2023-04-26T00:28:52;99331.16;;;7.53;47.08
6506;BME280;3286;49.858;8.768;2023-04-26T00:31:19;99336.63;;;6.96;49.17
6506;BME280;3286;49.858;8.768;2023-04-26T00:33:46;99340.81;;;6.87;49.12
6506;BME280;3286;49.858;8.768;2023-04-26T00:36:12;99330.56;;;6.84;49.36
6506;BME280;3286;49.858;8.768;2023-04-26T00:38:41;99331.84;;;6.90;49.19
6506;BME280;3286;49.858;8.768;2023-04-26T00:41:07;99330.78;;;6.92;49.22
6506;BME280;3286;49.858;8.768;2023-04-26T00:43:34;99327.09;;;6.95;49.10
6506;BME280;3286;49.858;8.768;2023-04-26T00:46:02;99334.69;;;7.09;49.21
6506;BME280;3286;49.858;8.768;2023-04-26T00:48:29;99336.44;;;6.76;49.99
6506;BME280;3286;49.858;8.768;2023-04-26T00:50:57;99337.81;;;7.03;48.85
6506;BME280;3286;49.858;8.768;2023-04-26T00:53:23;99334.25;;;6.81;49.83
6506;BME280;3286;49.858;8.768;2023-04-26T00:55:51;99345.06;;;6.56;51.81
6506;BME280;3286;49.858;8.768;2023-04-26T00:58:18;99342.16;;;6.70;50.21
6506;BME280;3286;49.858;8.768;2023-04-26T01:00:45;99338.72;;;6.24;51.34
6506;BME280;3286;49.858;8.768;2023-04-26T01:03:13;99345.66;;;6.48;51.19
6506;BME280;3286;49.858;8.768;2023-04-26T01:05:40;99344.22;;;6.09;52.86
6506;BME280;3286;49.858;8.768;2023-04-26T01:08:06;99343.25;;;6.56;51.25
6506;BME280;3286;49.858;8.768;2023-04-26T01:10:34;99341.94;;;6.62;50.27
6506;BME280;3286;49.858;8.768;2023-04-26T01:13:01;99348.16;;;6.61;49.69
6506;BME280;3286;49.858;8.768;2023-04-26T01:15:28;99337.38;;;6.75;49.43
6506;BME280;3286;49.858;8.768;2023-04-26T01:17:57;99341.94;;;6.73;49.34
6506;BME280;3286;49.858;8.768;2023-04-26T01:20:25;99344.00;;;7.02;48.96
6506;BME280;3286;49.858;8.768;2023-04-26T01:22:53;99344.56;;;6.73;50.43
6506;BME280;3286;49.858;8.768;2023-04-26T01:25:20;99348.50;;;6.11;52.54
6506;BME280;3286;49.858;8.768;2023-04-26T01:27:46;99342.66;;;6.52;50.59
6506;BME280;3286;49.858;8.768;2023-04-26T01:30:13;99338.84;;;6.34;50.56
6506;BME280;3286;49.858;8.768;2023-04-26T01:32:40;99341.72;;;6.54;49.87
6506;BME280;3286;49.858;8.768;2023-04-26T01:35:07;99335.09;;;5.79;52.26
6506;BME280;3286;49.858;8.768;2023-04-26T01:37:34;99326.31;;;6.49;51.01
6506;BME280;3286;49.858;8.768;2023-04-26T01:40:02;99337.78;;;6.14;51.21
6506;BME280;3286;49.858;8.768;2023-04-26T01:42:30;99334.91;;;6.17;51.78
6506;BME280;3286;49.858;8.768;2023-04-26T01:44:57;99338.03;;;5.63;52.69
6506;BME280;3286;49.858;8.768;2023-04-26T01:47:24;99338.97;;;6.09;51.77
6506;BME280;3286;49.858;8.768;2023-04-26T01:49:51;99342.34;;;6.34;51.46
6506;BME280;3286;49.858;8.768;2023-04-26T01:52:18;99336.97;;;6.13;51.03
6506;BME280;3286;49.858;8.768;2023-04-26T01:54:45;99336.59;;;6.06;50.90
6506;BME280;3286;49.858;8.768;2023-04-26T01:57:13;99342.69;;;5.71;52.45
6506;BME280;3286;49.858;8.768;2023-04-26T01:59:39;99346.38;;;5.69;52.46
6506;BME280;3286;49.858;8.768;2023-04-26T02:02:06;99334.72;;;5.73;51.50
6506;BME280;3286;49.858;8.768;2023-04-26T02:04:33;99338.91;;;5.40;53.95
6506;BME280;3286;49.858;8.768;2023-04-26T02:06:59;99338.63;;;5.56;53.07
6506;BME280;3286;49.858;8.768;2023-04-26T02:09:26;99344.28;;;5.49;53.14
6506;BME280;3286;49.858;8.768;2023-04-26T02:11:53;99342.81;;;4.85;55.76
6506;BME280;3286;49.858;8.768;2023-04-26T02:14:21;99343.34;;;5.15;54.63
6506;BME280;3286;49.858;8.768;2023-04-26T02:16:47;99344.44;;;5.59;52.79
6506;BME280;3286;49.858;8.768;2023-04-26T02:19:16;99344.78;;;5.19;54.23
6506;BME280;3286;49.858;8.768;2023-04-26T02:21:50;99348.97;;;4.97;54.41
6506;BME280;3286;49.858;8.768;2023-04-26T02:24:17;99350.91;;;4.06;58.04
6506;BME280;3286;49.858;8.768;2023-04-26T02:26:44;99347.84;;;4.88;56.30
6506;BME280;3286;49.858;8.768;2023-04-26T02:29:10;99345.69;;;5.06;55.11
6506;BME280;3286;49.858;8.768;2023-04-26T02:31:38;99348.06;;;4.85;55.11
6506;BME280;3286;49.858;8.768;2023-04-26T02:34:05;99348.63;;;5.02;54.29
6506;BME280;3286;49.858;8.768;2023-04-26T02:36:32;99349.56;;;5.25;53.77
6506;BME280;3286;49.858;8.768;2023-04-26T02:38:58;99347.66;;;4.78;55.34
6506;BME280;3286;49.858;8.768;2023-04-26T02:41:25;99356.72;;;4.48;55.50
6506;BME280;3286;49.858;8.768;2023-04-26T02:43:52;99347.84;;;4.88;54.68
6506;BME280;3286;49.858;8.768;2023-04-26T02:46:18;99351.63;;;4.47;55.64
6506;BME280;3286;49.858;8.768;2023-04-26T02:48:46;99351.91;;;5.17;53.54
6506;BME280;3286;49.858;8.768;2023-04-26T02:51:13;99349.56;;;5.25;52.20
6506;BME280;3286;49.858;8.768;2023-04-26T02:53:40;99342.16;;;4.95;53.66
6506;BME280;3286;49.858;8.768;2023-04-26T02:56:06;99349.50;;;4.52;55.72
6506;BME280;3286;49.858;8.768;2023-04-26T02:58:33;99347.19;;;4.60;54.69
6506;BME280;3286;49.858;8.768;2023-04-26T03:01:00;99351.91;;;4.42;55.57
6506;BME280;3286;49.858;8.768;2023-04-26T03:03:28;99359.06;;;4.27;55.76
6506;BME280;3286;49.858;8.768;2023-04-26T03:05:56;99348.91;;;4.35;55.08
6506;BME280;3286;49.858;8.768;2023-04-26T03:08:23;99340.88;;;4.76;54.59
6506;BME280;3286;49.858;8.768;2023-04-26T03:10:50;99351.41;;;4.24;55.05
6506;BME280;3286;49.858;8.768;2023-04-26T03:13:16;99347.75;;;4.40;55.36
6506;BME280;3286;49.858;8.768;2023-04-26T03:15:44;99342.75;;;4.37;55.77
6506;BME280;3286;49.858;8.768;2023-04-26T03:18:11;99347.97;;;4.37;55.25
6506;BME280;3286;49.858;8.768;2023-04-26T03:20:37;99345.34;;;4.49;55.29
6506;BME280;3286;49.858;8.768;2023-04-26T03:23:05;99345.97;;;4.27;55.30
6506;BME280;3286;49.858;8.768;2023-04-26T03:25:32;99349.72;;;4.49;54.86
6506;BME280;3286;49.858;8.768;2023-04-26T03:27:59;99339.91;;;4.53;54.90
6506;BME280;3286;49.858;8.768;2023-04-26T03:30:25;99349.75;;;4.36;55.07
6506;BME280;3286;49.858;8.768;2023-04-26T03:32:52;99344.41;;;4.51;55.02
6506;BME280;3286;49.858;8.768;2023-04-26T03:35:19;99341.72;;;4.63;54.88
6506;BME280;3286;49.858;8.768;2023-04-26T03:37:45;99344.81;;;4.44;56.24
6506;BME280;3286;49.858;8.768;2023-04-26T03:40:13;99343.53;;;4.50;55.59
6506;BME280;3286;49.858;8.768;2023-04-26T03:42:41;99345.38;;;4.74;54.55
6506;BME280;3286;49.858;8.768;2023-04-26T03:45:08;99352.63;;;4.57;54.50
6506;BME280;3286;49.858;8.768;2023-04-26T03:47:35;99337.78;;;4.95;53.24
6506;BME280;3286;49.858;8.768;2023-04-26T03:50:02;99339.00;;;5.02;53.38
6506;BME280;3286;49.858;8.768;2023-04-26T03:52:29;99337.88;;;5.18;53.30
6506;BME280;3286;49.858;8.768;2023-04-26T03:54:56;99344.38;;;5.36;52.65
6506;BME280;3286;49.858;8.768;2023-04-26T03:57:24;99338.53;;;5.33;52.17
6506;BME280;3286;49.858;8.768;2023-04-26T03:59:51;99333.13;;;5.23;53.31
6506;BME280;3286;49.858;8.768;2023-04-26T04:02:17;99340.63;;;5.16;53.20
6506;BME280;3286;49.858;8.768;2023-04-26T04:04:44;99339.22;;;4.99;53.66
6506;BME280;3286;49.858;8.768;2023-04-26T04:07:11;99338.75;;;5.30;53.24
6506;BME280;3286;49.858;8.768;2023-04-26T04:09:37;99336.09;;;5.18;54.01
6506;BME280;3286;49.858;8.768;2023-04-26T04:12:04;99335.22;;;5.42;52.60
6506;BME280;3286;49.858;8.768;2023-04-26T04:14:32;99339.59;;;5.30;53.29
6506;BME280;3286;49.858;8.768;2023-04-26T04:16:59;99341.28;;;5.31;53.18
6506;BME280;3286;49.858;8.768;2023-04-26T04:19:26;99333.03;;;5.25;52.70
6506;BME280;3286;49.858;8.768;2023-04-26T04:21:52;99330.97;;;5.17;53.17
6506;BME280;3286;49.858;8.768;2023-04-26T04:24:19;99337.34;;;5.37;52.51
6506;BME280;3286;49.858;8.768;2023-04-26T04:26:46;99337.75;;;5.55;52.73
6506;BME280;3286;49.858;8.768;2023-04-26T04:29:12;99337.63;;;5.21;53.04
6506;BME280;3286;49.858;8.768;2023-04-26T04:31:42;99340.75;;;5.26;53.31
6506;BME280;3286;49.858;8.768;2023-04-26T04:34:08;99343.00;;;5.55;52.25
6506;BME280;3286;49.858;8.768;2023-04-26T04:36:35;99344.97;;;5.04;53.83
6506;BME280;3286;49.858;8.768;2023-04-26T04:39:03;99349.72;;;5.35;53.16
6506;BME280;3286;49.858;8.768;2023-04-26T04:41:31;99349.59;;;5.61;52.43
6506;BME280;3286;49.858;8.768;2023-04-26T04:43:59;99356.41;;;5.39;52.82
6506;BME280;3286;49.858;8.768;2023-04-26T04:46:26;99356.13;;;5.66;53.12
6506;BME280;3286;49.858;8.768;2023-04-26T04:48:54;99367.78;;;5.51;52.79
6506;BME280;3286;49.858;8.768;2023-04-26T04:51:21;99369.06;;;5.45;53.11
6506;BME280;3286;49.858;8.768;2023-04-26T04:53:48;99359.34;;;5.59;52.06
6506;BME280;3286;49.858;8.768;2023-04-26T04:56:16;99363.81;;;4.97;54.70
6506;BME280;3286;49.858;8.768;2023-04-26T04:58:44;99365.44;;;5.71;53.01
6506;BME280;3286;49.858;8.768;2023-04-26T05:01:12;99368.34;;;5.43;54.35
6506;BME280;3286;49.858;8.768;2023-04-26T05:03:40;99372.97;;;5.75;53.90
6506;BME280;3286;49.858;8.768;2023-04-26T05:06:08;99372.41;;;5.83;53.52
6506;BME280;3286;49.858;8.768;2023-04-26T05:08:35;99376.28;;;5.66;54.26
6506;BME280;3286;49.858;8.768;2023-04-26T05:11:01;99372.03;;;5.88;53.89
6506;BME280;3286;49.858;8.768;2023-04-26T05:13:28;99379.94;;;5.52;55.44
6506;BME280;3286;49.858;8.768;2023-04-26T05:15:55;99380.72;;;5.41;54.95
6506;BME280;3286;49.858;8.768;2023-04-26T05:18:21;99377.03;;;5.91;55.40
6506;BME280;3286;49.858;8.768;2023-04-26T05:20:48;99377.44;;;5.98;55.03
6506;BME280;3286;49.858;8.768;2023-04-26T05:23:16;99379.84;;;5.65;55.04
6506;BME280;3286;49.858;8.768;2023-04-26T05:25:43;99389.19;;;5.80;55.38
6506;BME280;3286;49.858;8.768;2023-04-26T05:28:13;99394.91;;;6.33;54.85
6506;BME280;3286;49.858;8.768;2023-04-26T05:30:40;99391.94;;;6.37;55.24
6506;BME280;3286;49.858;8.768;2023-04-26T05:33:06;99395.25;;;6.05;56.91
6506;BME280;3286;49.858;8.768;2023-04-26T05:35:33;99394.97;;;5.97;57.28
6506;BME280;3286;49.858;8.768;2023-04-26T05:38:00;99398.34;;;6.11;57.35
6506;BME280;3286;49.858;8.768;2023-04-26T05:40:28;99392.88;;;6.71;55.35
6506;BME280;3286;49.858;8.768;2023-04-26T05:42:55;99400.66;;;6.72;53.38
6506;BME280;3286;49.858;8.768;2023-04-26T05:45:22;99404.44;;;7.02;53.52
6506;BME280;3286;49.858;8.768;2023-04-26T05:47:49;99405.16;;;6.81;54.96
6506;BME280;3286;49.858;8.768;2023-04-26T05:50:16;99400.13;;;6.90;54.95
6506;BME280;3286;49.858;8.768;2023-04-26T05:52:42;99399.03;;;7.15;53.04
6506;BME280;3286;49.858;8.768;2023-04-26T05:55:09;99402.25;;;7.73;52.36
6506;BME280;3286;49.858;8.768;2023-04-26T05:57:39;99394.88;;;7.66;52.74
6506;BME280;3286;49.858;8.768;2023-04-26T06:00:06;99399.78;;;7.71;52.14
6506;BME280;3286;49.858;8.768;2023-04-26T06:02:34;99408.31;;;7.85;52.44
6506;BME280;3286;49.858;8.768;2023-04-26T06:05:01;99402.13;;;8.38;50.88
6506;BME280;3286;49.858;8.768;2023-04-26T06:07:29;99402.94;;;8.60;49.42
6506;BME280;3286;49.858;8.768;2023-04-26T06:09:55;99409.31;;;8.57;49.05
6506;BME280;3286;49.858;8.768;2023-04-26T06:12:22;99415.91;;;8.51;49.98
6506;BME280;3286;49.858;8.768;2023-04-26T06:14:50;99420.03;;;8.75;49.59
6506;BME280;3286;49.858;8.768;2023-04-26T06:17:17;99422.38;;;8.68;50.15
6506;BME280;3286;49.858;8.768;2023-04-26T06:19:43;99427.25;;;8.73;49.93
6506;BME280;3286;49.858;8.768;2023-04-26T06:22:10;99431.44;;;8.86;50.09
6506;BME280;3286;49.858;8.768;2023-04-26T06:24:36;99425.13;;;8.98;49.18
6506;BME280;3286;49.858;8.768;2023-04-26T06:27:03;99422.09;;;8.72;49.19
6506;BME280;3286;49.858;8.768;2023-04-26T06:29:31;99420.06;;;9.65;47.92
6506;BME280;3286;49.858;8.768;2023-04-26T06:32:00;99431.97;;;9.99;47.57
6506;BME280;3286;49.858;8.768;2023-04-26T06:34:26;99424.38;;;9.86;48.28
6506;BME280;3286;49.858;8.768;2023-04-26T06:36:53;99427.16;;;9.55;48.21
6506;BME280;3286;49.858;8.768;2023-04-26T06:39:20;99428.53;;;9.89;47.15
6506;BME280;3286;49.858;8.768;2023-04-26T06:41:46;99430.97;;;10.29;45.58
6506;BME280;3286;49.858;8.768;2023-04-26T06:44:13;99436.88;;;9.84;48.11
6506;BME280;3286;49.858;8.768;2023-04-26T06:46:39;99428.75;;;10.45;46.51
6506;BME280;3286;49.858;8.768;2023-04-26T06:49:08;99432.25;;;10.15;47.47
6506;BME280;3286;49.858;8.768;2023-04-26T06:51:35;99433.06;;;10.16;46.25
6506;BME280;3286;49.858;8.768;2023-04-26T06:54:02;99440.03;;;9.97;46.50
6506;BME280;3286;49.858;8.768;2023-04-26T06:56:29;99427.88;;;10.34;45.22
6506;BME280;3286;49.858;8.768;2023-04-26T06:58:59;99432.88;;;10.37;45.98
6506;BME280;3286;49.858;8.768;2023-04-26T07:01:26;99425.59;;;10.69;44.56
6506;BME280;3286;49.858;8.768;2023-04-26T07:03:54;99422.19;;;10.29;45.13
6506;BME280;3286;49.858;8.768;2023-04-26T07:06:23;99427.16;;;11.36;42.97
6506;BME280;3286;49.858;8.768;2023-04-26T07:08:49;99425.19;;;10.92;43.51
6506;BME280;3286;49.858;8.768;2023-04-26T07:11:16;99422.69;;;10.62;44.28
6506;BME280;3286;49.858;8.768;2023-04-26T07:13:43;99421.81;;;10.99;42.67
6506;BME280;3286;49.858;8.768;2023-04-26T07:16:09;99422.56;;;11.56;41.24
6506;BME280;3286;49.858;8.768;2023-04-26T07:18:36;99419.28;;;11.26;39.90
6506;BME280;3286;49.858;8.768;2023-04-26T07:21:03;99423.56;;;11.09;39.69
6506;BME280;3286;49.858;8.768;2023-04-26T07:23:31;99425.66;;;10.49;41.68
6506;BME280;3286;49.858;8.768;2023-04-26T07:25:58;99422.16;;;10.86;40.19
6506;BME280;3286;49.858;8.768;2023-04-26T07:28:25;99416.53;;;11.45;40.04
6506;BME280;3286;49.858;8.768;2023-04-26T07:30:52;99419.28;;;11.26;41.37
6506;BME280;3286;49.858;8.768;2023-04-26T07:33:18;99420.03;;;11.91;39.79
6506;BME280;3286;49.858;8.768;2023-04-26T07:35:52;99413.50;;;12.21;39.40
6506;BME280;3286;49.858;8.768;2023-04-26T07:38:19;99416.13;;;11.58;40.39
6506;BME280;3286;49.858;8.768;2023-04-26T07:40:47;99417.88;;;11.68;39.44
6506;BME280;3286;49.858;8.768;2023-04-26T07:43:14;99420.72;;;11.38;40.56
6506;BME280;3286;49.858;8.768;2023-04-26T07:45:40;99419.63;;;12.22;39.84
6506;BME280;3286;49.858;8.768;2023-04-26T07:48:07;99421.50;;;11.67;39.61
6506;BME280;3286;49.858;8.768;2023-04-26T07:50:34;99412.78;;;12.11;39.91
6506;BME280;3286;49.858;8.768;2023-04-26T07:53:03;99411.38;;;12.94;38.59
6506;BME280;3286;49.858;8.768;2023-04-26T07:55:32;99419.25;;;12.43;38.50
6506;BME280;3286;49.858;8.768;2023-04-26T07:57:59;99421.94;;;11.98;38.98
6506;BME280;3286;49.858;8.768;2023-04-26T08:00:27;99413.63;;;13.32;36.16
6506;BME280;3286;49.858;8.768;2023-04-26T08:02:54;99417.19;;;12.55;38.23
6506;BME280;3286;49.858;8.768;2023-04-26T08:05:20;99419.09;;;12.71;37.62
6506;BME280;3286;49.858;8.768;2023-04-26T08:07:47;99429.16;;;12.67;37.80
6506;BME280;3286;49.858;8.768;2023-04-26T08:10:14;99421.66;;;13.65;35.54
6506;BME280;3286;49.858;8.768;2023-04-26T08:12:40;99414.38;;;13.59;37.20
6506;BME280;3286;49.858;8.768;2023-04-26T08:15:10;99421.34;;;13.93;34.33
6506;BME280;3286;49.858;8.768;2023-04-26T08:17:37;99419.03;;;13.90;34.27
6506;BME280;3286;49.858;8.768;2023-04-26T08:20:04;99409.84;;;14.90;34.03
6506;BME280;3286;49.858;8.768;2023-04-26T08:22:31;99414.84;;;13.46;35.18
6506;BME280;3286;49.858;8.768;2023-04-26T08:24:58;99418.00;;;13.50;35.28
6506;BME280;3286;49.858;8.768;2023-04-26T08:27:25;99418.88;;;13.75;36.40
6506;BME280;3286;49.858;8.768;2023-04-26T08:29:53;99425.50;;;13.87;35.94
6506;BME280;3286;49.858;8.768;2023-04-26T08:32:21;99417.69;;;13.69;34.59
6506;BME280;3286;49.858;8.768;2023-04-26T08:34:48;99419.34;;;13.62;35.26
6506;BME280;3286;49.858;8.768;2023-04-26T08:37:14;99416.03;;;14.74;34.51
6506;BME280;3286;49.858;8.768;2023-04-26T08:39:41;99409.22;;;14.80;33.91
6506;BME280;3286;49.858;8.768;2023-04-26T08:42:12;99410.38;;;14.04;34.86
6506;BME280;3286;49.858;8.768;2023-04-26T08:44:40;99423.78;;;12.94;36.60
6506;BME280;3286;49.858;8.768;2023-04-26T08:47:13;99416.38;;;13.90;35.58
6506;BME280;3286;49.858;8.768;2023-04-26T08:49:44;99419.53;;;13.69;36.08
6506;BME280;3286;49.858;8.768;2023-04-26T08:52:12;99410.91;;;13.67;34.80
6506;BME280;3286;49.858;8.768;2023-04-26T08:54:41;99412.19;;;13.96;34.25
6506;BME280;3286;49.858;8.768;2023-04-26T08:57:11;99405.50;;;14.89;31.85
6506;BME280;3286;49.858;8.768;2023-04-26T08:59:38;99401.63;;;15.32;32.92
6506;BME280;3286;49.858;8.768;2023-04-26T09:02:05;99404.75;;;16.05;31.81
6506;BME280;3286;49.858;8.768;2023-04-26T09:04:32;99396.56;;;16.22;31.15
6506;BME280;3286;49.858;8.768;2023-04-26T09:07:02;99397.22;;;16.39;30.63
6506;BME280;3286;49.858;8.768;2023-04-26T09:09:34;99392.00;;;16.31;30.75
6506;BME280;3286;49.858;8.768;2023-04-26T09:12:03;99389.88;;;16.26;30.32
6506;BME280;3286;49.858;8.768;2023-04-26T09:14:29;99387.75;;;14.33;30.80
6506;BME280;3286;49.858;8.768;2023-04-26T09:16:56;99385.97;;;14.74;31.33
6506;BME280;3286;49.858;8.768;2023-04-26T09:19:35;99390.00;;;15.01;31.34
6506;BME280;3286;49.858;8.768;2023-04-26T09:22:04;99389.59;;;15.13;32.20
6506;BME280;3286;49.858;8.768;2023-04-26T09:24:46;99389.19;;;14.53;30.62
6506;BME280;3286;49.858;8.768;2023-04-26T09:27:14;99384.03;;;14.99;31.12
6506;BME280;3286;49.858;8.768;2023-04-26T09:29:56;99386.53;;;15.24;31.50
6506;BME280;3286;49.858;8.768;2023-04-26T09:32:22;99386.59;;;15.39;31.19
6506;BME280;3286;49.858;8.768;2023-04-26T09:34:50;99388.31;;;15.55;31.25
6506;BME280;3286;49.858;8.768;2023-04-26T09:37:18;99394.44;;;15.09;30.27
6506;BME280;3286;49.858;8.768;2023-04-26T09:39:45;99386.53;;;15.24;30.50
6506;BME280;3286;49.858;8.768;2023-04-26T09:42:15;99384.88;;;16.08;29.25
6506;BME280;3286;49.858;8.768;2023-04-26T09:44:43;99382.53;;;16.43;28.37
6506;BME280;3286;49.858;8.768;2023-04-26T09:47:10;99387.53;;;16.08;28.08
6506;BME280;3286;49.858;8.768;2023-04-26T09:49:47;99377.81;;;16.45;27.77
6506;BME280;3286;49.858;8.768;2023-04-26T09:52:17;99378.00;;;15.05;27.36
6506;BME280;3286;49.858;8.768;2023-04-26T09:54:45;99379.94;;;15.82;28.34
6506;BME280;3286;49.858;8.768;2023-04-26T09:57:13;99375.97;;;16.01;27.98
6506;BME280;3286;49.858;8.768;2023-04-26T09:59:42;99379.66;;;16.15;30.13
6506;BME280;3286;49.858;8.768;2023-04-26T10:02:18;99382.81;;;15.57;29.08
6506;BME280;3286;49.858;8.768;2023-04-26T10:04:47;99374.97;;;16.62;28.25
6506;BME280;3286;49.858;8.768;2023-04-26T10:07:15;99364.91;;;17.31;27.60
6506;BME280;3286;49.858;8.768;2023-04-26T10:09:43;99369.56;;;16.25;28.89
6506;BME280;3286;49.858;8.768;2023-04-26T10:12:12;99359.88;;;16.84;27.81
6506;BME280;3286;49.858;8.768;2023-04-26T10:14:39;99365.25;;;13.63;30.34
6506;BME280;3286;49.858;8.768;2023-04-26T10:17:06;99369.19;;;14.65;30.82
6506;BME280;3286;49.858;8.768;2023-04-26T10:19:34;99372.22;;;13.89;34.08
6506;BME280;3286;49.858;8.768;2023-04-26T10:22:04;99369.38;;;15.03;31.71
6506;BME280;3286;49.858;8.768;2023-04-26T10:24:31;99362.88;;;15.76;31.30
6506;BME280;3286;49.858;8.768;2023-04-26T10:27:01;99363.28;;;15.64;30.57
6506;BME280;3286;49.858;8.768;2023-04-26T10:32:28;99370.19;;;12.73;31.32
6506;BME280;3286;49.858;8.768;2023-04-26T10:35:09;99361.25;;;14.00;31.81
6506;BME280;3286;49.858;8.768;2023-04-26T10:37:36;99353.63;;;13.89;30.33
6506;BME280;3286;49.858;8.768;2023-04-26T10:40:22;99359.19;;;14.19;31.28
6506;BME280;3286;49.858;8.768;2023-04-26T10:43:29;99358.94;;;14.45;30.64
6506;BME280;3286;49.858;8.768;2023-04-26T10:46:31;99368.06;;;12.69;31.50
6506;BME280;3286;49.858;8.768;2023-04-26T10:49:11;99363.94;;;13.51;30.44
6506;BME280;3286;49.858;8.768;2023-04-26T10:51:38;99351.94;;;13.30;31.19
6506;BME280;3286;49.858;8.768;2023-04-26T10:54:05;99354.31;;;13.66;30.13
6506;BME280;3286;49.858;8.768;2023-04-26T10:56:50;99339.06;;;14.81;28.38
6506;BME280;3286;49.858;8.768;2023-04-26T10:59:20;99335.78;;;14.23;27.93
6506;BME280;3286;49.858;8.768;2023-04-26T11:01:47;99331.06;;;15.13;28.29
6506;BME280;3286;49.858;8.768;2023-04-26T11:04:13;99330.03;;;14.90;26.86
6506;BME280;3286;49.858;8.768;2023-04-26T11:06:47;99336.03;;;13.80;28.43
6506;BME280;3286;49.858;8.768;2023-04-26T11:09:34;99323.44;;;13.65;29.24
6506;BME280;3286;49.858;8.768;2023-04-26T11:12:03;99320.13;;;13.88;28.92
6506;BME280;3286;49.858;8.768;2023-04-26T11:14:31;99321.78;;;13.89;28.48
6506;BME280;3286;49.858;8.768;2023-04-26T11:17:01;99325.09;;;15.11;27.69
6506;BME280;3286;49.858;8.768;2023-04-26T11:19:27;99329.03;;;14.91;28.42
6506;BME280;3286;49.858;8.768;2023-04-26T11:21:54;99317.69;;;15.21;27.25
6506;BME280;3286;49.858;8.768;2023-04-26T11:24:24;99318.53;;;15.21;27.06
6506;BME280;3286;49.858;8.768;2023-04-26T11:26:51;99313.13;;;15.30;27.74
6506;BME280;3286;49.858;8.768;2023-04-26T11:29:18;99320.91;;;16.53;27.76
6506;BME280;3286;49.858;8.768;2023-04-26T11:31:51;99319.97;;;15.86;26.56
6506;BME280;3286;49.858;8.768;2023-04-26T11:34:20;99320.75;;;16.40;27.13
6506;BME280;3286;49.858;8.768;2023-04-26T11:36:47;99320.38;;;15.59;27.37
6506;BME280;3286;49.858;8.768;2023-04-26T11:39:14;99303.59;;;16.12;25.12
6506;BME280;3286;49.858;8.768;2023-04-26T11:41:41;99294.69;;;15.67;26.69
6506;BME280;3286;49.858;8.768;2023-04-26T11:44:10;99298.41;;;16.41;27.14
6506;BME280;3286;49.858;8.768;2023-04-26T11:46:36;99279.47;;;17.09;25.92
6506;BME280;3286;49.858;8.768;2023-04-26T11:49:06;99294.28;;;16.38;25.65
6506;BME280;3286;49.858;8.768;2023-04-26T11:51:33;99284.19;;;16.70;24.41
6506;BME280;3286;49.858;8.768;2023-04-26T11:54:00;99271.28;;;17.11;24.55
6506;BME280;3286;49.858;8.768;2023-04-26T11:56:27;99268.38;;;17.05;23.20
6506;BME280;3286;49.858;8.768;2023-04-26T11:58:55;99267.13;;;17.30;24.77
6506;BME280;3286;49.858;8.768;2023-04-26T12:01:23;99275.41;;;17.13;24.22
6506;BME280;3286;49.858;8.768;2023-04-26T12:03:51;99277.31;;;17.19;24.16
6506;BME280;3286;49.858;8.768;2023-04-26T12:06:19;99273.31;;;17.59;25.05
6506;BME280;3286;49.858;8.768;2023-04-26T12:08:51;99274.13;;;17.88;24.76
6506;BME280;3286;49.858;8.768;2023-04-26T12:11:17;99277.72;;;17.73;22.36
6506;BME280;3286;49.858;8.768;2023-04-26T12:13:45;99263.16;;;18.11;22.51
6506;BME280;3286;49.858;8.768;2023-04-26T12:16:12;99276.53;;;17.04;23.14
6506;BME280;3286;49.858;8.768;2023-04-26T12:18:39;99280.19;;;15.31;24.11
6506;BME280;3286;49.858;8.768;2023-04-26T12:21:06;99276.81;;;16.72;24.83
6506;BME280;3286;49.858;8.768;2023-04-26T12:23:38;99288.88;;;15.48;24.09
6506;BME280;3286;49.858;8.768;2023-04-26T12:26:06;99273.78;;;16.39;22.46
6506;BME280;3286;49.858;8.768;2023-04-26T12:28:35;99272.03;;;16.68;24.32
6506;BME280;3286;49.858;8.768;2023-04-26T12:31:02;99267.84;;;17.74;22.47
6506;BME280;3286;49.858;8.768;2023-04-26T12:33:29;99263.09;;;18.46;21.16
6506;BME280;3286;49.858;8.768;2023-04-26T12:35:57;99256.41;;;18.77;19.87
6506;BME280;3286;49.858;8.768;2023-04-26T12:38:24;99259.59;;;17.12;22.19
6506;BME280;3286;49.858;8.768;2023-04-26T12:40:52;99265.44;;;18.14;21.72
6506;BME280;3286;49.858;8.768;2023-04-26T12:43:19;99257.53;;;19.17;22.24
6506;BME280;3286;49.858;8.768;2023-04-26T12:45:48;99254.22;;;19.48;21.90
6506;BME280;3286;49.858;8.768;2023-04-26T12:48:15;99247.25;;;19.20;23.40
6506;BME280;3286;49.858;8.768;2023-04-26T12:50:42;99250.72;;;19.41;20.46
6506;BME280;3286;49.858;8.768;2023-04-26T12:53:10;99250.66;;;19.95;20.30
6506;BME280;3286;49.858;8.768;2023-04-26T12:55:36;99251.47;;;20.02;20.20
6506;BME280;3286;49.858;8.768;2023-04-26T12:58:04;99250.66;;;19.88;20.99
6506;BME280;3286;49.858;8.768;2023-04-26T13:00:31;99246.25;;;20.21;19.57
6506;BME280;3286;49.858;8.768;2023-04-26T13:02:58;99243.94;;;20.31;19.13
6506;BME280;3286;49.858;8.768;2023-04-26T13:05:24;99244.53;;;19.27;21.75
6506;BME280;3286;49.858;8.768;2023-04-26T13:07:51;99248.72;;;18.41;21.94
6506;BME280;3286;49.858;8.768;2023-04-26T13:10:17;99244.66;;;18.65;21.90
6506;BME280;3286;49.858;8.768;2023-04-26T13:12:44;99246.78;;;19.50;21.84
6506;BME280;3286;49.858;8.768;2023-04-26T13:15:12;99246.31;;;19.94;21.25
6506;BME280;3286;49.858;8.768;2023-04-26T13:17:39;99248.34;;;20.12;19.87
6506;BME280;3286;49.858;8.768;2023-04-26T13:20:07;99245.19;;;19.22;20.60
6506;BME280;3286;49.858;8.768;2023-04-26T13:22:34;99250.66;;;17.26;22.01
6506;BME280;3286;49.858;8.768;2023-04-26T13:25:01;99251.06;;;17.80;21.44
6506;BME280;3286;49.858;8.768;2023-04-26T13:27:27;99252.03;;;17.15;22.33
6506;BME280;3286;49.858;8.768;2023-04-26T13:29:54;99261.19;;;16.32;25.33
6506;BME280;3286;49.858;8.768;2023-04-26T13:32:22;99263.03;;;16.32;24.58
6506;BME280;3286;49.858;8.768;2023-04-26T13:34:49;99260.69;;;16.80;24.11